Time;durP1;ratioP1;P1;durP2;ratioP2;P2;SDS_P1;SDS_P2;PMS_P1;PMS_P2;Temp;Humidity;BMP_temperature;BMP_pressure;BME280_temperature;BME280_humidity;BME280_pressure;Samples;Min_cycle;Max_cycle;Signal;HPM_P1;HPM_P2
2023/08/31 00:02:04;;;;;;;15.00;7.72;;;;;;;;;;5008285;28;25078;-70
2023/08/31 00:04:30;;;;;;;15.45;8.55;;;;;;;;;;5006761;28;25055;-71
2023/08/31 00:06:56;;;;;;;17.38;7.57;;;;;;;;;;5005348;28;25090;-71
2023/08/31 00:09:24;;;;;;;15.00;8.55;;;;;;;;;;5003343;28;25097;-73
2023/08/31 00:11:50;;;;;;;14.25;8.70;;;;;;;;;;5007126;28;25078;-71
2023/08/31 00:14:17;;;;;;;14.95;7.28;;;;;;;;;;5022736;28;25053;-71
2023/08/31 00:16:43;;;;;;;20.83;8.35;;;;;;;;;;5008650;28;25076;-70
2023/08/31 00:19:09;;;;;;;18.85;7.43;;;;;;;;;;5008502;28;25097;-70
2023/08/31 00:21:35;;;;;;;14.93;7.05;;;;;;;;;;5004370;28;25146;-71
2023/08/31 00:24:01;;;;;;;18.23;7.53;;;;;;;;;;5002673;28;25065;-70
2023/08/31 00:26:27;;;;;;;15.05;7.50;;;;;;;;;;5005568;28;25087;-70
2023/08/31 00:28:53;;;;;;;19.92;7.63;;;;;;;;;;5007970;28;25064;-71
2023/08/31 00:31:19;;;;;;;13.48;7.28;;;;;;;;;;5011292;28;25152;-71
2023/08/31 00:33:45;;;;;;;10.65;6.80;;;;;;;;;;5009775;28;25068;-70
2023/08/31 00:36:11;;;;;;;12.25;6.95;;;;;;;;;;5013757;28;25162;-71
2023/08/31 00:38:37;;;;;;;10.07;6.13;;;;;;;;;;5026133;28;25174;-71
2023/08/31 00:41:03;;;;;;;11.30;5.70;;;;;;;;;;5007467;28;25059;-69
2023/08/31 00:43:29;;;;;;;12.57;6.65;;;;;;;;;;5023126;28;25093;-70
2023/08/31 00:45:59;;;;;;;12.55;6.22;;;;;;;;;;5006082;28;25086;-71
2023/08/31 00:48:26;;;;;;;12.82;6.38;;;;;;;;;;5006247;28;25149;-70
2023/08/31 00:50:52;;;;;;;14.32;6.05;;;;;;;;;;5008591;28;25083;-69
2023/08/31 00:53:18;;;;;;;19.55;7.05;;;;;;;;;;4996899;28;25064;-70
2023/08/31 00:55:45;;;;;;;14.25;6.50;;;;;;;;;;5013901;28;25090;-69
2023/08/31 00:58:11;;;;;;;20.10;6.47;;;;;;;;;;4994426;28;25104;-70
2023/08/31 01:00:56;;;;;;;9.88;5.60;;;;;;;;;;5009060;28;25144;-71
2023/08/31 01:03:28;;;;;;;14.68;6.68;;;;;;;;;;4999081;28;25053;-70
2023/08/31 01:06:03;;;;;;;13.98;6.63;;;;;;;;;;5005281;28;25102;-70
2023/08/31 01:08:35;;;;;;;14.95;6.60;;;;;;;;;;5004846;28;25059;-71
2023/08/31 01:11:08;;;;;;;13.88;6.60;;;;;;;;;;5008367;28;25123;-71
2023/08/31 01:13:35;;;;;;;10.23;5.57;;;;;;;;;;4997123;28;25143;-69
2023/08/31 01:16:04;;;;;;;14.88;5.65;;;;;;;;;;5006900;28;25140;-71
2023/08/31 01:18:31;;;;;;;13.50;5.63;;;;;;;;;;5006684;28;25060;-72
2023/08/31 01:21:17;;;;;;;12.70;6.22;;;;;;;;;;5003153;28;25063;-72
2023/08/31 01:23:46;;;;;;;13.82;6.80;;;;;;;;;;4997798;28;25074;-72
2023/08/31 01:26:12;;;;;;;12.60;6.07;;;;;;;;;;5006155;28;25105;-70
2023/08/31 01:28:39;;;;;;;10.68;6.22;;;;;;;;;;5004423;28;25085;-72
2023/08/31 01:31:05;;;;;;;13.43;6.78;;;;;;;;;;5010709;28;25068;-70
2023/08/31 01:33:31;;;;;;;15.85;7.60;;;;;;;;;;5012917;28;25058;-71
2023/08/31 01:35:58;;;;;;;13.10;7.30;;;;;;;;;;5008066;28;25112;-70
2023/08/31 01:38:27;;;;;;;18.85;8.30;;;;;;;;;;5006056;28;25068;-72
2023/08/31 01:41:01;;;;;;;14.82;8.43;;;;;;;;;;5003659;28;25070;-70
2023/08/31 01:43:28;;;;;;;13.30;7.97;;;;;;;;;;5002873;28;25160;-71
2023/08/31 01:45:54;;;;;;;16.92;8.52;;;;;;;;;;5008207;28;25083;-72
2023/08/31 01:48:20;;;;;;;23.75;9.07;;;;;;;;;;5003722;28;25139;-72
2023/08/31 01:50:46;;;;;;;19.08;8.73;;;;;;;;;;5004931;28;25070;-71
2023/08/31 01:53:12;;;;;;;15.52;8.73;;;;;;;;;;5004281;28;25056;-70
2023/08/31 01:55:38;;;;;;;14.48;9.27;;;;;;;;;;4998852;28;25073;-71
2023/08/31 01:58:04;;;;;;;15.55;9.73;;;;;;;;;;5005831;28;25082;-70
2023/08/31 02:00:34;;;;;;;14.48;9.18;;;;;;;;;;5006123;28;25061;-71
2023/08/31 02:03:00;;;;;;;18.17;9.45;;;;;;;;;;5000433;28;25064;-72
2023/08/31 02:05:26;;;;;;;16.20;10.25;;;;;;;;;;5005380;28;25073;-72
2023/08/31 02:07:52;;;;;;;18.30;10.65;;;;;;;;;;5007435;28;25070;-71
2023/08/31 02:10:18;;;;;;;16.67;10.77;;;;;;;;;;5010899;28;25132;-71
2023/08/31 02:12:44;;;;;;;17.95;11.18;;;;;;;;;;5014144;28;25055;-70
2023/08/31 02:15:10;;;;;;;18.50;12.02;;;;;;;;;;5014270;28;25162;-71
2023/08/31 02:17:36;;;;;;;19.38;12.20;;;;;;;;;;5012776;28;25102;-69
2023/08/31 02:20:04;;;;;;;20.80;13.40;;;;;;;;;;5013829;28;25087;-71
2023/08/31 02:22:35;;;;;;;20.05;13.75;;;;;;;;;;5009738;28;25058;-72
2023/08/31 02:25:01;;;;;;;24.27;14.60;;;;;;;;;;5010583;28;25081;-70
2023/08/31 02:27:27;;;;;;;21.27;13.90;;;;;;;;;;5010465;28;25057;-71
2023/08/31 02:29:53;;;;;;;22.48;12.40;;;;;;;;;;5018168;28;25094;-73
2023/08/31 02:32:19;;;;;;;20.95;15.45;;;;;;;;;;5017190;28;25074;-72
2023/08/31 02:34:45;;;;;;;23.45;15.80;;;;;;;;;;5003102;28;25061;-73
2023/08/31 02:37:11;;;;;;;19.92;15.10;;;;;;;;;;5012997;28;25153;-71
2023/08/31 02:39:37;;;;;;;25.92;16.98;;;;;;;;;;5003737;28;25068;-72
2023/08/31 02:42:05;;;;;;;26.10;17.67;;;;;;;;;;5003769;28;25075;-71
2023/08/31 02:44:31;;;;;;;27.38;18.55;;;;;;;;;;5006832;28;25055;-70
2023/08/31 02:46:57;;;;;;;25.65;17.05;;;;;;;;;;5008814;28;25074;-75
2023/08/31 02:49:23;;;;;;;30.48;19.90;;;;;;;;;;5016413;28;25080;-70
2023/08/31 02:51:49;;;;;;;22.92;17.10;;;;;;;;;;5020744;28;25082;-73
2023/08/31 02:54:15;;;;;;;26.67;17.90;;;;;;;;;;5034425;28;25052;-72
2023/08/31 02:56:41;;;;;;;32.10;18.55;;;;;;;;;;5017581;28;25079;-71
2023/08/31 02:59:07;;;;;;;22.95;14.75;;;;;;;;;;5009769;28;25070;-71
2023/08/31 03:01:33;;;;;;;20.85;14.95;;;;;;;;;;5015970;28;25092;-71
2023/08/31 03:03:59;;;;;;;21.50;15.60;;;;;;;;;;5010606;28;25159;-70
2023/08/31 03:06:26;;;;;;;25.63;15.90;;;;;;;;;;5011702;28;25147;-71
2023/08/31 03:08:52;;;;;;;24.48;16.05;;;;;;;;;;5003451;28;25056;-71
2023/08/31 03:11:18;;;;;;;22.63;14.15;;;;;;;;;;5005919;28;25154;-71
2023/08/31 03:13:44;;;;;;;24.17;15.18;;;;;;;;;;5009268;28;25052;-72
2023/08/31 03:16:10;;;;;;;23.45;15.45;;;;;;;;;;5019671;28;25061;-71
2023/08/31 03:18:36;;;;;;;22.55;14.73;;;;;;;;;;5016402;28;25125;-71
2023/08/31 03:21:02;;;;;;;21.85;13.93;;;;;;;;;;5010190;28;25073;-71
2023/08/31 03:23:29;;;;;;;20.67;13.30;;;;;;;;;;5019265;28;25062;-71
2023/08/31 03:25:55;;;;;;;23.58;15.88;;;;;;;;;;5012050;28;25066;-68
2023/08/31 03:28:21;;;;;;;24.42;15.80;;;;;;;;;;5022234;28;25058;-72
2023/08/31 03:30:54;;;;;;;23.50;14.70;;;;;;;;;;5007844;28;25066;-71
2023/08/31 03:33:20;;;;;;;25.42;15.75;;;;;;;;;;5004105;28;25081;-71
2023/08/31 03:35:46;;;;;;;29.27;16.05;;;;;;;;;;5015533;28;25097;-71
2023/08/31 03:38:12;;;;;;;25.15;17.38;;;;;;;;;;5004379;28;25345;-71
2023/08/31 03:40:38;;;;;;;27.65;15.07;;;;;;;;;;5007024;28;25143;-72
2023/08/31 03:43:04;;;;;;;22.92;16.50;;;;;;;;;;5007486;28;25103;-70
2023/08/31 03:45:30;;;;;;;29.08;17.55;;;;;;;;;;5000221;28;25132;-72
2023/08/31 03:47:56;;;;;;;23.27;16.02;;;;;;;;;;5006667;28;25076;-71
2023/08/31 03:50:22;;;;;;;32.15;18.70;;;;;;;;;;5010960;28;25057;-69
2023/08/31 03:52:48;;;;;;;27.40;17.45;;;;;;;;;;5001758;28;25178;-71
2023/08/31 03:55:14;;;;;;;24.20;16.88;;;;;;;;;;5001787;28;25074;-71
2023/08/31 03:57:40;;;;;;;24.33;16.42;;;;;;;;;;5003357;28;25096;-70
2023/08/31 04:00:10;;;;;;;24.17;15.70;;;;;;;;;;5006695;28;25053;-69
2023/08/31 04:02:37;;;;;;;25.98;16.65;;;;;;;;;;5001716;28;25056;-72
2023/08/31 04:05:05;;;;;;;27.85;16.88;;;;;;;;;;5011063;28;25046;-72
2023/08/31 04:07:31;;;;;;;24.40;15.43;;;;;;;;;;5006283;28;25066;-74
2023/08/31 04:09:57;;;;;;;26.23;15.60;;;;;;;;;;5005523;28;25067;-71
2023/08/31 04:12:23;;;;;;;25.40;15.25;;;;;;;;;;5026017;28;25093;-72
2023/08/31 04:14:49;;;;;;;25.10;15.52;;;;;;;;;;5007796;28;25068;-73
2023/08/31 04:17:15;;;;;;;27.23;16.63;;;;;;;;;;5000907;28;25056;-70
2023/08/31 04:19:41;;;;;;;27.02;15.73;;;;;;;;;;5013290;28;25110;-73
2023/08/31 04:22:07;;;;;;;22.60;15.27;;;;;;;;;;5015102;28;25066;-70
2023/08/31 04:24:33;;;;;;;25.67;16.45;;;;;;;;;;5006004;28;25074;-71
2023/08/31 04:26:59;;;;;;;28.48;17.08;;;;;;;;;;5007811;28;25059;-71
2023/08/31 04:29:25;;;;;;;23.55;16.00;;;;;;;;;;5009402;28;25056;-72
2023/08/31 04:31:51;;;;;;;30.73;17.52;;;;;;;;;;5010077;28;25081;-72
2023/08/31 04:34:17;;;;;;;24.30;16.30;;;;;;;;;;5008885;28;25173;-72
2023/08/31 04:36:43;;;;;;;21.42;15.95;;;;;;;;;;5008011;28;25051;-72
2023/08/31 04:39:09;;;;;;;27.42;16.23;;;;;;;;;;5008311;28;25125;-72
2023/08/31 04:41:35;;;;;;;26.77;17.30;;;;;;;;;;5004520;28;25081;-72
2023/08/31 04:44:01;;;;;;;22.92;16.60;;;;;;;;;;5009666;28;25053;-72
2023/08/31 04:46:26;;;;;;;28.95;17.70;;;;;;;;;;5004791;28;25051;-71
2023/08/31 04:48:53;;;;;;;26.98;15.82;;;;;;;;;;5010839;28;25072;-71
2023/08/31 04:51:29;;;;;;;21.27;14.50;;;;;;;;;;5008419;28;25064;-72
2023/08/31 04:53:55;;;;;;;24.00;14.00;;;;;;;;;;5009714;28;25160;-71
2023/08/31 04:56:21;;;;;;;25.63;15.00;;;;;;;;;;5007009;28;25118;-71
2023/08/31 04:58:47;;;;;;;23.25;15.48;;;;;;;;;;5015378;28;25057;-72
2023/08/31 05:01:12;;;;;;;23.23;13.98;;;;;;;;;;5014979;28;25059;-72
2023/08/31 05:03:38;;;;;;;21.75;13.98;;;;;;;;;;5015281;28;25080;-74
2023/08/31 05:06:04;;;;;;;25.10;14.93;;;;;;;;;;5020253;28;25073;-73
2023/08/31 05:08:31;;;;;;;23.90;13.75;;;;;;;;;;5018111;28;25080;-72
2023/08/31 05:10:57;;;;;;;31.85;15.02;;;;;;;;;;5014237;28;25089;-72
2023/08/31 05:13:23;;;;;;;20.35;14.75;;;;;;;;;;5011876;28;25062;-72
2023/08/31 05:15:49;;;;;;;16.73;11.73;;;;;;;;;;5008726;28;25057;-72
2023/08/31 05:18:15;;;;;;;20.05;12.43;;;;;;;;;;5013702;28;25057;-71
2023/08/31 05:20:45;;;;;;;25.15;13.43;;;;;;;;;;5011098;28;25105;-71
2023/08/31 05:23:11;;;;;;;21.08;13.55;;;;;;;;;;5007277;28;25080;-71
2023/08/31 05:25:41;;;;;;;22.25;12.85;;;;;;;;;;5012207;28;25112;-72
2023/08/31 05:28:07;;;;;;;21.88;13.13;;;;;;;;;;5005574;28;25051;-72
2023/08/31 05:30:34;;;;;;;14.82;10.70;;;;;;;;;;5014532;28;25062;-72
2023/08/31 05:33:00;;;;;;;19.70;11.63;;;;;;;;;;5003190;28;25073;-72
2023/08/31 05:35:26;;;;;;;19.55;12.52;;;;;;;;;;5008276;28;25117;-72
2023/08/31 05:37:52;;;;;;;16.48;10.25;;;;;;;;;;5007832;28;25072;-72
2023/08/31 05:40:18;;;;;;;19.30;10.80;;;;;;;;;;5007908;28;25079;-72
2023/08/31 05:42:44;;;;;;;14.90;9.55;;;;;;;;;;5008048;28;25078;-72
2023/08/31 05:45:10;;;;;;;14.88;9.73;;;;;;;;;;5010305;28;25150;-71
2023/08/31 05:47:36;;;;;;;16.63;9.88;;;;;;;;;;5005893;28;25144;-73
2023/08/31 05:50:03;;;;;;;15.98;9.60;;;;;;;;;;5010249;28;25098;-72
2023/08/31 05:52:29;;;;;;;14.88;9.35;;;;;;;;;;5006018;28;25061;-73
2023/08/31 05:54:55;;;;;;;13.80;8.75;;;;;;;;;;5001723;28;25073;-72
2023/08/31 05:57:21;;;;;;;13.35;7.78;;;;;;;;;;5003828;28;25155;-72
2023/08/31 05:59:47;;;;;;;16.30;8.38;;;;;;;;;;5001189;28;25057;-71
2023/08/31 06:02:14;;;;;;;15.05;7.82;;;;;;;;;;5006377;28;25048;-72
2023/08/31 06:04:40;;;;;;;11.68;7.50;;;;;;;;;;5010846;28;25071;-72
2023/08/31 06:07:06;;;;;;;15.20;8.15;;;;;;;;;;5018702;28;25063;-72
2023/08/31 06:09:31;;;;;;;18.73;8.65;;;;;;;;;;4997519;28;25089;-72
2023/08/31 06:11:57;;;;;;;16.45;9.20;;;;;;;;;;5007302;28;25052;-71
2023/08/31 06:14:23;;;;;;;14.90;9.32;;;;;;;;;;5005922;28;25116;-72
2023/08/31 06:16:49;;;;;;;17.30;10.20;;;;;;;;;;5006909;28;26208;-74
2023/08/31 06:19:15;;;;;;;14.57;10.45;;;;;;;;;;5011651;28;25206;-72
2023/08/31 06:21:42;;;;;;;16.90;9.75;;;;;;;;;;5005716;28;25071;-71
2023/08/31 06:24:12;;;;;;;21.77;10.90;;;;;;;;;;5004142;28;25080;-72
2023/08/31 06:26:38;;;;;;;15.80;9.63;;;;;;;;;;5006777;28;25177;-72
2023/08/31 06:29:04;;;;;;;14.25;9.68;;;;;;;;;;5005145;28;25093;-71
2023/08/31 06:31:30;;;;;;;19.30;10.25;;;;;;;;;;5008399;28;25135;-73
2023/08/31 06:33:56;;;;;;;16.02;10.05;;;;;;;;;;5007831;28;25072;-72
2023/08/31 06:36:22;;;;;;;15.35;10.15;;;;;;;;;;5006134;28;25083;-73
2023/08/31 06:38:48;;;;;;;17.42;10.15;;;;;;;;;;5005096;28;25061;-71
2023/08/31 06:41:15;;;;;;;14.55;9.02;;;;;;;;;;5013976;28;25058;-76
2023/08/31 06:43:41;;;;;;;16.67;9.40;;;;;;;;;;5006663;28;25067;-72
2023/08/31 06:46:07;;;;;;;13.70;9.02;;;;;;;;;;5008335;28;25120;-74
2023/08/31 06:48:33;;;;;;;13.48;7.88;;;;;;;;;;5005565;28;25099;-71
2023/08/31 06:50:59;;;;;;;20.45;8.63;;;;;;;;;;5007208;28;25068;-69
2023/08/31 06:53:25;;;;;;;13.82;9.18;;;;;;;;;;4998345;28;25157;-72
2023/08/31 06:55:52;;;;;;;16.67;9.13;;;;;;;;;;4997786;28;25085;-72
2023/08/31 06:58:18;;;;;;;12.55;8.32;;;;;;;;;;5003295;28;25137;-71
2023/08/31 07:00:43;;;;;;;13.95;8.65;;;;;;;;;;5004813;28;25069;-73
2023/08/31 07:03:10;;;;;;;16.45;7.95;;;;;;;;;;5005538;28;25075;-70
2023/08/31 07:05:41;;;;;;;10.40;8.57;;;;;;;;;;5008923;28;25066;-72
2023/08/31 07:08:08;;;;;;;15.05;7.97;;;;;;;;;;5008006;28;25094;-70
2023/08/31 07:10:36;;;;;;;16.70;8.98;;;;;;;;;;5004544;28;25074;-73
2023/08/31 07:13:02;;;;;;;20.25;8.23;;;;;;;;;;5005454;28;25063;-73
2023/08/31 07:15:28;;;;;;;12.82;8.02;;;;;;;;;;5007500;28;25061;-72
2023/08/31 07:17:54;;;;;;;17.00;8.95;;;;;;;;;;5007411;28;25048;-72
2023/08/31 07:20:20;;;;;;;14.98;7.97;;;;;;;;;;5004982;28;25085;-72
2023/08/31 07:22:46;;;;;;;12.90;7.85;;;;;;;;;;4999224;28;25092;-72
2023/08/31 07:25:12;;;;;;;12.68;7.75;;;;;;;;;;5009785;28;25135;-72
2023/08/31 07:27:38;;;;;;;14.00;8.48;;;;;;;;;;5004983;28;25057;-73
2023/08/31 07:30:05;;;;;;;15.30;8.50;;;;;;;;;;5030159;28;25062;-72
2023/08/31 07:32:31;;;;;;;14.05;9.68;;;;;;;;;;5011262;28;25053;-72
2023/08/31 07:34:57;;;;;;;13.75;9.55;;;;;;;;;;5006144;28;25065;-71
2023/08/31 07:37:23;;;;;;;12.88;9.45;;;;;;;;;;5010618;28;25059;-73
2023/08/31 07:39:49;;;;;;;14.57;9.60;;;;;;;;;;5009927;28;25065;-72
2023/08/31 07:42:15;;;;;;;10.77;8.77;;;;;;;;;;5009764;28;25068;-72
2023/08/31 07:44:41;;;;;;;13.20;9.15;;;;;;;;;;5010094;28;25073;-72
2023/08/31 07:47:08;;;;;;;16.65;9.50;;;;;;;;;;5009770;28;25151;-73
2023/08/31 07:49:34;;;;;;;13.18;9.02;;;;;;;;;;5009172;28;25110;-74
2023/08/31 07:52:00;;;;;;;16.70;8.27;;;;;;;;;;5011549;28;25105;-71
2023/08/31 07:54:26;;;;;;;12.57;7.97;;;;;;;;;;5010275;28;25111;-72
2023/08/31 07:56:52;;;;;;;14.32;8.85;;;;;;;;;;5015850;28;25140;-73
2023/08/31 07:59:18;;;;;;;13.23;7.90;;;;;;;;;;5005397;28;25167;-72
2023/08/31 08:01:44;;;;;;;11.27;7.28;;;;;;;;;;5008850;28;25134;-71
2023/08/31 08:04:11;;;;;;;11.68;8.20;;;;;;;;;;4997498;28;25063;-73
2023/08/31 08:06:37;;;;;;;12.55;7.63;;;;;;;;;;5001626;28;25061;-73
2023/08/31 08:09:04;;;;;;;12.13;6.90;;;;;;;;;;5001067;28;25111;-75
2023/08/31 08:11:30;;;;;;;14.10;6.88;;;;;;;;;;5000958;28;25143;-70
2023/08/31 08:13:56;;;;;;;9.32;6.20;;;;;;;;;;5008111;28;25086;-74
2023/08/31 08:16:22;;;;;;;14.90;6.75;;;;;;;;;;5007028;28;25154;-74
2023/08/31 08:18:48;;;;;;;8.77;5.65;;;;;;;;;;5000864;28;25133;-75
2023/08/31 08:21:14;;;;;;;6.32;4.25;;;;;;;;;;5013661;28;25124;-73
2023/08/31 08:23:40;;;;;;;5.78;4.13;;;;;;;;;;5005496;28;25106;-73
2023/08/31 08:26:06;;;;;;;5.47;3.65;;;;;;;;;;5003986;28;25099;-71
2023/08/31 08:28:32;;;;;;;10.88;4.18;;;;;;;;;;5004896;28;25146;-72
2023/08/31 08:31:01;;;;;;;12.05;3.50;;;;;;;;;;5007984;28;25065;-70
2023/08/31 08:33:27;;;;;;;7.50;4.05;;;;;;;;;;5031026;28;25059;-73
2023/08/31 08:35:56;;;;;;;13.20;4.68;;;;;;;;;;5008471;28;25113;-71
2023/08/31 08:38:22;;;;;;;11.95;3.85;;;;;;;;;;5010583;28;25099;-72
2023/08/31 08:40:48;;;;;;;9.00;4.38;;;;;;;;;;5007981;28;25117;-71
2023/08/31 08:43:14;;;;;;;10.85;4.03;;;;;;;;;;5003549;28;25084;-73
2023/08/31 08:45:41;;;;;;;8.20;2.75;;;;;;;;;;5002871;28;25053;-73
2023/08/31 08:48:08;;;;;;;6.35;2.80;;;;;;;;;;5008906;28;25094;-73
2023/08/31 08:50:34;;;;;;;7.10;2.30;;;;;;;;;;5004549;28;25144;-74
2023/08/31 08:53:01;;;;;;;5.55;2.47;;;;;;;;;;5014007;28;25063;-74
2023/08/31 08:55:28;;;;;;;2.92;2.17;;;;;;;;;;5008441;28;25099;-70
2023/08/31 08:57:54;;;;;;;3.42;1.70;;;;;;;;;;5010553;28;25061;-76
2023/08/31 09:00:20;;;;;;;7.18;2.45;;;;;;;;;;5004907;28;25074;-72
2023/08/31 09:02:46;;;;;;;5.07;2.00;;;;;;;;;;5023063;28;25070;-72
2023/08/31 09:05:12;;;;;;;5.88;1.70;;;;;;;;;;5003472;28;25138;-75
2023/08/31 09:07:39;;;;;;;7.28;1.50;;;;;;;;;;5005235;28;25136;-72
2023/08/31 09:10:05;;;;;;;3.78;1.92;;;;;;;;;;5009743;28;25092;-73
2023/08/31 09:12:31;;;;;;;6.30;2.13;;;;;;;;;;4999119;28;25068;-73
2023/08/31 09:15:01;;;;;;;5.43;1.70;;;;;;;;;;5010845;28;25468;-74
2023/08/31 09:17:27;;;;;;;3.70;2.10;;;;;;;;;;5018069;28;25064;-73
2023/08/31 09:20:03;;;;;;;2.40;1.85;;;;;;;;;;5005301;28;25137;-73
2023/08/31 09:22:29;;;;;;;6.93;2.35;;;;;;;;;;5000886;28;25063;-72
2023/08/31 09:24:55;;;;;;;3.63;1.70;;;;;;;;;;4998907;28;25072;-72
2023/08/31 09:27:22;;;;;;;4.43;1.77;;;;;;;;;;5002293;28;25067;-70
2023/08/31 09:29:49;;;;;;;7.32;2.00;;;;;;;;;;5002108;28;25109;-74
2023/08/31 09:32:18;;;;;;;6.22;1.70;;;;;;;;;;5002263;28;25074;-76
2023/08/31 09:34:44;;;;;;;4.45;1.30;;;;;;;;;;5011035;28;25063;-74
2023/08/31 09:37:10;;;;;;;7.60;1.50;;;;;;;;;;5001442;28;25136;-73
2023/08/31 09:39:37;;;;;;;2.35;1.50;;;;;;;;;;4997692;28;25130;-72
2023/08/31 09:42:03;;;;;;;5.63;1.38;;;;;;;;;;5001739;28;25122;-74
2023/08/31 09:44:29;;;;;;;5.75;1.63;;;;;;;;;;4995716;28;25153;-74
2023/08/31 09:46:55;;;;;;;3.47;0.90;;;;;;;;;;5006794;28;25092;-72
2023/08/31 09:49:22;;;;;;;6.28;1.70;;;;;;;;;;5003213;28;25075;-71
2023/08/31 09:51:49;;;;;;;4.28;0.98;;;;;;;;;;5001496;28;25052;-71
2023/08/31 09:54:16;;;;;;;3.22;1.15;;;;;;;;;;5001933;28;25138;-73
2023/08/31 09:56:43;;;;;;;2.65;1.25;;;;;;;;;;5000028;28;25047;-72
2023/08/31 09:59:10;;;;;;;5.20;1.40;;;;;;;;;;4993131;28;25074;-71
2023/08/31 10:01:36;;;;;;;2.00;1.35;;;;;;;;;;4999490;28;25138;-72
2023/08/31 10:04:03;;;;;;;3.65;1.08;;;;;;;;;;4999773;28;25161;-72
2023/08/31 10:06:30;;;;;;;3.25;1.10;;;;;;;;;;4997599;28;25111;-73
2023/08/31 10:08:56;;;;;;;2.38;1.17;;;;;;;;;;4993534;28;25155;-73
2023/08/31 10:11:23;;;;;;;3.10;1.00;;;;;;;;;;4999341;28;25154;-72
2023/08/31 10:13:49;;;;;;;1.70;0.80;;;;;;;;;;4995914;28;25145;-73
2023/08/31 10:16:17;;;;;;;1.67;1.08;;;;;;;;;;5004301;28;25104;-73
2023/08/31 10:18:43;;;;;;;1.48;0.80;;;;;;;;;;5003840;28;25064;-74
2023/08/31 10:21:09;;;;;;;6.10;1.27;;;;;;;;;;5006890;28;25074;-74
2023/08/31 10:23:35;;;;;;;2.40;0.80;;;;;;;;;;5009920;28;25066;-71
2023/08/31 10:26:03;;;;;;;3.90;1.25;;;;;;;;;;5006624;28;25070;-74
2023/08/31 10:28:29;;;;;;;2.35;0.90;;;;;;;;;;5008794;28;25152;-73
2023/08/31 10:31:03;;;;;;;2.65;1.05;;;;;;;;;;5011084;28;25100;-72
2023/08/31 10:33:31;;;;;;;3.65;1.17;;;;;;;;;;5010529;28;25112;-74
2023/08/31 10:35:57;;;;;;;2.33;0.80;;;;;;;;;;5011577;28;25064;-73
2023/08/31 10:38:28;;;;;;;3.15;0.98;;;;;;;;;;5005671;28;25077;-75
2023/08/31 10:41:03;;;;;;;2.75;1.00;;;;;;;;;;5008931;28;25055;-74
2023/08/31 10:43:45;;;;;;;7.22;1.63;;;;;;;;;;5006471;28;25141;-75
2023/08/31 10:46:30;;;;;;;1.60;1.00;;;;;;;;;;5005500;28;25048;-76
2023/08/31 10:48:57;;;;;;;4.55;1.60;;;;;;;;;;5016443;28;25056;-73
2023/08/31 10:51:24;;;;;;;3.15;1.13;;;;;;;;;;5012881;28;25061;-74
2023/08/31 10:53:50;;;;;;;6.88;0.88;;;;;;;;;;5014982;28;25072;-74
2023/08/31 10:56:17;;;;;;;2.72;1.10;;;;;;;;;;5013190;28;25171;-74
2023/08/31 10:58:44;;;;;;;2.50;0.95;;;;;;;;;;5017805;28;25066;-74
2023/08/31 11:01:10;;;;;;;2.88;1.10;;;;;;;;;;5013678;28;25074;-71
2023/08/31 11:03:55;;;;;;;3.50;1.10;;;;;;;;;;5011513;28;25075;-73
2023/08/31 11:06:21;;;;;;;2.05;0.90;;;;;;;;;;5013673;28;25056;-73
2023/08/31 11:08:47;;;;;;;2.38;0.93;;;;;;;;;;5006683;28;25069;-73
2023/08/31 11:11:13;;;;;;;2.42;0.88;;;;;;;;;;5012793;28;25131;-74
2023/08/31 11:13:39;;;;;;;4.25;0.73;;;;;;;;;;5018347;28;25144;-77
2023/08/31 11:16:05;;;;;;;2.90;0.80;;;;;;;;;;5018421;28;25072;-75
2023/08/31 11:18:31;;;;;;;2.00;1.15;;;;;;;;;;5013400;28;25016;-75
2023/08/31 11:20:57;;;;;;;2.40;0.77;;;;;;;;;;5012590;28;25066;-74
2023/08/31 11:23:23;;;;;;;4.13;1.10;;;;;;;;;;5007965;28;25141;-74
2023/08/31 11:25:50;;;;;;;7.07;1.83;;;;;;;;;;5020033;28;25066;-75
2023/08/31 11:28:16;;;;;;;2.75;1.17;;;;;;;;;;5030366;28;25083;-75
2023/08/31 11:30:44;;;;;;;3.70;1.20;;;;;;;;;;5014114;28;25136;-74
2023/08/31 11:33:14;;;;;;;2.67;0.90;;;;;;;;;;5014499;28;25062;-75
2023/08/31 11:35:42;;;;;;;1.92;0.90;;;;;;;;;;5012761;28;25146;-74
2023/08/31 11:38:08;;;;;;;0.88;0.88;;;;;;;;;;5009355;28;25054;-74
2023/08/31 11:40:35;;;;;;;3.78;1.00;;;;;;;;;;5016701;28;25135;-73
2023/08/31 11:43:03;;;;;;;3.65;0.85;;;;;;;;;;5011521;28;25061;-75
2023/08/31 11:45:29;;;;;;;2.85;1.10;;;;;;;;;;5016184;28;25525;-73
2023/08/31 11:47:55;;;;;;;4.28;0.90;;;;;;;;;;5018639;28;25069;-75
2023/08/31 11:50:22;;;;;;;3.70;1.20;;;;;;;;;;5015410;28;25045;-75
2023/08/31 11:52:48;;;;;;;2.55;1.10;;;;;;;;;;5014203;28;25060;-74
2023/08/31 11:55:17;;;;;;;2.60;1.20;;;;;;;;;;5015480;28;25062;-73
2023/08/31 11:57:50;;;;;;;1.15;0.90;;;;;;;;;;5026233;28;25060;-72
2023/08/31 12:00:20;;;;;;;4.93;0.80;;;;;;;;;;5019353;28;25056;-73
2023/08/31 12:02:48;;;;;;;2.80;1.00;;;;;;;;;;5010024;28;25073;-75
2023/08/31 12:05:14;;;;;;;4.07;0.90;;;;;;;;;;5016487;28;25078;-74
2023/08/31 12:07:41;;;;;;;3.95;1.15;;;;;;;;;;5009148;28;25064;-73
2023/08/31 12:10:08;;;;;;;5.72;1.58;;;;;;;;;;5002297;28;25082;-73
2023/08/31 12:12:34;;;;;;;3.45;1.10;;;;;;;;;;5001207;28;25102;-76
2023/08/31 12:15:03;;;;;;;3.75;1.13;;;;;;;;;;4995958;28;25076;-70
2023/08/31 12:17:32;;;;;;;3.45;1.60;;;;;;;;;;4994376;28;25096;-75
2023/08/31 12:20:05;;;;;;;3.20;1.00;;;;;;;;;;5006535;28;25078;-73
2023/08/31 12:22:31;;;;;;;1.45;1.15;;;;;;;;;;5000275;28;25068;-72
2023/08/31 12:24:57;;;;;;;4.00;1.40;;;;;;;;;;5004159;28;25066;-76
2023/08/31 12:27:23;;;;;;;2.85;1.02;;;;;;;;;;5004278;28;25160;-75
2023/08/31 12:29:50;;;;;;;4.53;1.10;;;;;;;;;;5004099;28;25208;-74
2023/08/31 12:32:18;;;;;;;2.10;1.10;;;;;;;;;;5000297;28;25081;-75
2023/08/31 12:34:44;;;;;;;1.33;0.88;;;;;;;;;;5005538;28;25076;-73
2023/08/31 12:37:10;;;;;;;1.02;0.73;;;;;;;;;;5002575;28;25080;-72
2023/08/31 12:39:37;;;;;;;5.53;1.35;;;;;;;;;;5014577;28;25061;-73
2023/08/31 12:42:03;;;;;;;1.40;0.80;;;;;;;;;;5009767;28;25164;-73
2023/08/31 12:44:29;;;;;;;7.43;1.02;;;;;;;;;;5004119;28;25128;-75
2023/08/31 12:46:55;;;;;;;2.75;0.82;;;;;;;;;;5002197;28;25158;-73
2023/08/31 12:49:22;;;;;;;3.03;1.05;;;;;;;;;;5004505;28;25082;-76
2023/08/31 12:51:50;;;;;;;3.45;1.10;;;;;;;;;;5007899;28;25418;-75
2023/08/31 12:54:16;;;;;;;2.83;1.17;;;;;;;;;;5005183;28;25050;-74
2023/08/31 12:56:42;;;;;;;2.05;1.05;;;;;;;;;;5007009;28;25090;-73
2023/08/31 12:59:08;;;;;;;3.67;0.90;;;;;;;;;;5006175;28;25082;-74
2023/08/31 13:01:34;;;;;;;1.45;0.77;;;;;;;;;;5007092;28;25065;-74
2023/08/31 13:04:00;;;;;;;1.35;0.70;;;;;;;;;;5010665;28;25096;-73
2023/08/31 13:06:26;;;;;;;4.07;1.30;;;;;;;;;;5004651;28;25076;-75
2023/08/31 13:08:52;;;;;;;4.45;1.10;;;;;;;;;;5003972;28;25072;-75
2023/08/31 13:11:23;;;;;;;3.22;0.98;;;;;;;;;;5003639;28;25060;-74
2023/08/31 13:13:50;;;;;;;4.50;1.23;;;;;;;;;;5004142;28;25062;-71
2023/08/31 13:16:16;;;;;;;2.60;1.13;;;;;;;;;;5004065;28;25145;-73
2023/08/31 13:18:42;;;;;;;7.90;1.58;;;;;;;;;;5004529;28;25067;-73
2023/08/31 13:21:08;;;;;;;4.82;1.35;;;;;;;;;;5004877;28;25146;-74
2023/08/31 13:23:34;;;;;;;3.33;1.23;;;;;;;;;;5004743;28;25015;-75
2023/08/31 13:26:00;;;;;;;2.88;0.90;;;;;;;;;;5006293;28;25064;-73
2023/08/31 13:28:26;;;;;;;2.08;1.00;;;;;;;;;;5011063;28;25132;-75
2023/08/31 13:31:00;;;;;;;5.32;1.35;;;;;;;;;;5008283;28;25162;-74
2023/08/31 13:33:28;;;;;;;2.28;0.88;;;;;;;;;;5003516;28;25176;-75
2023/08/31 13:35:54;;;;;;;7.03;1.25;;;;;;;;;;5005984;28;25060;-74
2023/08/31 13:38:20;;;;;;;7.03;1.20;;;;;;;;;;5005061;28;25068;-73
2023/08/31 13:40:46;;;;;;;3.78;1.30;;;;;;;;;;5005952;28;25054;-75
2023/08/31 13:43:12;;;;;;;3.22;1.02;;;;;;;;;;5001119;28;25066;-73
2023/08/31 13:45:38;;;;;;;4.30;1.10;;;;;;;;;;5001674;28;25062;-73
2023/08/31 13:48:04;;;;;;;5.28;1.02;;;;;;;;;;4997524;28;25081;-74
2023/08/31 13:50:30;;;;;;;2.13;1.20;;;;;;;;;;5004116;28;25069;-75
2023/08/31 13:52:56;;;;;;;2.28;1.13;;;;;;;;;;5002160;28;25164;-74
2023/08/31 13:55:23;;;;;;;2.80;1.00;;;;;;;;;;5000681;28;25147;-73
2023/08/31 13:57:49;;;;;;;2.65;1.10;;;;;;;;;;5003495;28;25060;-73
2023/08/31 14:00:15;;;;;;;6.85;1.60;;;;;;;;;;5012888;28;25063;-75
2023/08/31 14:02:43;;;;;;;4.75;1.67;;;;;;;;;;4996601;28;25066;-73
2023/08/31 14:05:10;;;;;;;3.03;1.05;;;;;;;;;;5017678;28;25076;-74
2023/08/31 14:07:39;;;;;;;2.88;1.05;;;;;;;;;;5003810;28;25053;-77
2023/08/31 14:10:05;;;;;;;2.47;0.98;;;;;;;;;;5002351;28;25172;-75
2023/08/31 14:12:31;;;;;;;2.35;1.30;;;;;;;;;;5005629;28;25063;-74
2023/08/31 14:14:58;;;;;;;2.67;1.23;;;;;;;;;;5000259;28;25167;-73
2023/08/31 14:17:24;;;;;;;4.22;1.10;;;;;;;;;;5015890;28;25175;-76
2023/08/31 14:19:50;;;;;;;6.18;1.65;;;;;;;;;;5002743;28;25056;-77
2023/08/31 14:22:16;;;;;;;6.50;1.33;;;;;;;;;;4997206;28;25095;-70
2023/08/31 14:24:42;;;;;;;4.03;1.20;;;;;;;;;;5003774;28;25138;-75
2023/08/31 14:27:08;;;;;;;4.82;1.20;;;;;;;;;;5024101;28;25104;-72
2023/08/31 14:29:34;;;;;;;4.40;1.27;;;;;;;;;;5007332;28;25054;-76